sensor_id;sensor_type;location;lat;lon;timestamp;pressure;altitude;pressure_sealevel;temperature;humidity
62952;BME280;52163;52.212;-1.002;2023-01-29T00:00:07;101943.63;;;5.66;92.68
62952;BME280;52163;52.212;-1.002;2023-01-29T00:02:35;101946.25;;;5.66;92.72
62952;BME280;52163;52.212;-1.002;2023-01-29T00:05:01;101947.85;;;5.66;92.70
62952;BME280;52163;52.212;-1.002;2023-01-29T00:07:26;101944.53;;;5.66;92.63
62952;BME280;52163;52.212;-1.002;2023-01-29T00:09:52;101944.20;;;5.65;92.65
62952;BME280;52163;52.212;-1.002;2023-01-29T00:12:17;101938.27;;;5.63;92.55
62952;BME280;52163;52.212;-1.002;2023-01-29T00:14:42;101932.89;;;5.60;92.29
62952;BME280;52163;52.212;-1.002;2023-01-29T00:17:08;101923.48;;;5.56;92.34
62952;BME280;52163;52.212;-1.002;2023-01-29T00:19:34;101918.27;;;5.53;92.19
62952;BME280;52163;52.212;-1.002;2023-01-29T00:22:00;101913.89;;;5.53;92.67
62952;BME280;52163;52.212;-1.002;2023-01-29T00:24:25;101914.21;;;5.54;92.86
62952;BME280;52163;52.212;-1.002;2023-01-29T00:26:51;101910.52;;;5.56;92.65
62952;BME280;52163;52.212;-1.002;2023-01-29T00:29:16;101912.08;;;5.55;92.31
62952;BME280;52163;52.212;-1.002;2023-01-29T00:31:43;101909.33;;;5.52;92.11
62952;BME280;52163;52.212;-1.002;2023-01-29T00:34:09;101905.47;;;5.52;92.51
62952;BME280;52163;52.212;-1.002;2023-01-29T00:36:35;101907.44;;;5.50;92.36
62952;BME280;52163;52.212;-1.002;2023-01-29T00:39:00;101913.96;;;5.48;92.21
62952;BME280;52163;52.212;-1.002;2023-01-29T00:41:35;101908.40;;;5.45;92.18
62952;BME280;52163;52.212;-1.002;2023-01-29T00:44:19;101910.52;;;5.44;92.32
62952;BME280;52163;52.212;-1.002;2023-01-29T00:47:03;101911.61;;;5.41;92.52
62952;BME280;52163;52.212;-1.002;2023-01-29T00:49:29;101913.52;;;5.42;92.63
62952;BME280;52163;52.212;-1.002;2023-01-29T00:52:02;101912.50;;;5.41;92.32
62952;BME280;52163;52.212;-1.002;2023-01-29T00:54:46;101916.20;;;5.40;92.13
62952;BME280;52163;52.212;-1.002;2023-01-29T00:57:11;101920.80;;;5.37;92.03
62952;BME280;52163;52.212;-1.002;2023-01-29T00:59:37;101920.85;;;5.34;91.98
62952;BME280;52163;52.212;-1.002;2023-01-29T01:02:02;101923.17;;;5.32;92.01
62952;BME280;52163;52.212;-1.002;2023-01-29T01:04:46;101920.92;;;5.30;91.89
62952;BME280;52163;52.212;-1.002;2023-01-29T01:07:12;101927.05;;;5.29;92.03
62952;BME280;52163;52.212;-1.002;2023-01-29T01:09:37;101928.63;;;5.30;92.03
62952;BME280;52163;52.212;-1.002;2023-01-29T01:12:22;101931.61;;;5.30;91.92
62952;BME280;52163;52.212;-1.002;2023-01-29T01:14:48;101929.87;;;5.29;91.76
62952;BME280;52163;52.212;-1.002;2023-01-29T01:17:14;101929.54;;;5.28;91.75
62952;BME280;52163;52.212;-1.002;2023-01-29T01:19:40;101924.78;;;5.29;91.85
62952;BME280;52163;52.212;-1.002;2023-01-29T01:22:05;101917.27;;;5.28;91.47
62952;BME280;52163;52.212;-1.002;2023-01-29T01:24:31;101918.36;;;5.26;91.32
62952;BME280;52163;52.212;-1.002;2023-01-29T01:26:56;101917.34;;;5.23;91.45
62952;BME280;52163;52.212;-1.002;2023-01-29T01:29:22;101916.98;;;5.23;91.52
62952;BME280;52163;52.212;-1.002;2023-01-29T01:31:47;101911.40;;;5.22;91.22
62952;BME280;52163;52.212;-1.002;2023-01-29T01:34:13;101911.58;;;5.22;91.17
62952;BME280;52163;52.212;-1.002;2023-01-29T01:36:38;101908.60;;;5.22;91.11
62952;BME280;52163;52.212;-1.002;2023-01-29T01:39:03;101900.70;;;5.23;91.33
62952;BME280;52163;52.212;-1.002;2023-01-29T01:41:29;101896.33;;;5.22;90.93
62952;BME280;52163;52.212;-1.002;2023-01-29T01:44:00;101899.91;;;5.17;90.76
62952;BME280;52163;52.212;-1.002;2023-01-29T01:46:31;101901.91;;;5.13;90.60
62952;BME280;52163;52.212;-1.002;2023-01-29T01:51:28;101894.13;;;5.06;90.63
62952;BME280;52163;52.212;-1.002;2023-01-29T01:54:02;101898.68;;;5.05;90.59
62952;BME280;52163;52.212;-1.002;2023-01-29T01:56:34;101897.30;;;5.04;90.92
62952;BME280;52163;52.212;-1.002;2023-01-29T01:59:08;101902.55;;;5.04;90.76
62952;BME280;52163;52.212;-1.002;2023-01-29T02:01:35;101898.88;;;5.04;90.80
62952;BME280;52163;52.212;-1.002;2023-01-29T02:04:09;101896.80;;;5.03;90.50
62952;BME280;52163;52.212;-1.002;2023-01-29T02:06:54;101894.73;;;5.01;90.62
62952;BME280;52163;52.212;-1.002;2023-01-29T02:09:45;101897.05;;;4.98;90.44
62952;BME280;52163;52.212;-1.002;2023-01-29T02:12:13;101901.30;;;4.94;90.52
62952;BME280;52163;52.212;-1.002;2023-01-29T02:14:41;101899.62;;;4.90;90.54
62952;BME280;52163;52.212;-1.002;2023-01-29T02:17:10;101897.38;;;4.87;90.57
62952;BME280;52163;52.212;-1.002;2023-01-29T02:27:30;101874.30;;;4.86;90.79
62952;BME280;52163;52.212;-1.002;2023-01-29T02:39:41;101839.02;;;4.68;90.92
62952;BME280;52163;52.212;-1.002;2023-01-29T02:44:40;101842.42;;;4.62;91.09
62952;BME280;52163;52.212;-1.002;2023-01-29T02:47:32;101842.60;;;4.62;91.32
62952;BME280;52163;52.212;-1.002;2023-01-29T02:50:03;101844.17;;;4.62;91.33
62952;BME280;52163;52.212;-1.002;2023-01-29T02:52:38;101842.45;;;4.61;91.23
62952;BME280;52163;52.212;-1.002;2023-01-29T02:57:43;101842.13;;;4.58;90.99
62952;BME280;52163;52.212;-1.002;2023-01-29T03:00:18;101839.86;;;4.57;91.33
62952;BME280;52163;52.212;-1.002;2023-01-29T03:02:53;101844.75;;;4.57;91.42
62952;BME280;52163;52.212;-1.002;2023-01-29T03:05:26;101841.94;;;4.56;91.47
62952;BME280;52163;52.212;-1.002;2023-01-29T03:07:58;101833.37;;;4.57;91.57
62952;BME280;52163;52.212;-1.002;2023-01-29T03:13:05;101827.55;;;4.62;91.61
62952;BME280;52163;52.212;-1.002;2023-01-29T03:15:38;101824.52;;;4.65;91.85
62952;BME280;52163;52.212;-1.002;2023-01-29T03:18:27;101815.52;;;4.70;91.88
62952;BME280;52163;52.212;-1.002;2023-01-29T03:21:05;101806.20;;;4.73;91.11
62952;BME280;52163;52.212;-1.002;2023-01-29T03:23:54;101808.66;;;4.73;90.79
62952;BME280;52163;52.212;-1.002;2023-01-29T03:26:41;101807.45;;;4.72;90.73
62952;BME280;52163;52.212;-1.002;2023-01-29T03:29:29;101815.90;;;4.68;90.42
62952;BME280;52163;52.212;-1.002;2023-01-29T03:32:15;101807.39;;;4.64;90.68
62952;BME280;52163;52.212;-1.002;2023-01-29T03:34:46;101800.74;;;4.63;90.65
62952;BME280;52163;52.212;-1.002;2023-01-29T03:37:14;101801.80;;;4.64;90.89
62952;BME280;52163;52.212;-1.002;2023-01-29T03:39:43;101801.94;;;4.66;91.09
62952;BME280;52163;52.212;-1.002;2023-01-29T03:42:19;101791.73;;;4.69;90.84
62952;BME280;52163;52.212;-1.002;2023-01-29T03:44:57;101795.73;;;4.72;91.07
62952;BME280;52163;52.212;-1.002;2023-01-29T03:47:34;101791.80;;;4.76;90.78
62952;BME280;52163;52.212;-1.002;2023-01-29T03:55:40;101789.77;;;4.72;90.12
62952;BME280;52163;52.212;-1.002;2023-01-29T03:58:24;101780.87;;;4.70;90.12
62952;BME280;52163;52.212;-1.002;2023-01-29T04:01:03;101774.31;;;4.64;89.96
62952;BME280;52163;52.212;-1.002;2023-01-29T04:03:37;101763.70;;;4.59;89.89
62952;BME280;52163;52.212;-1.002;2023-01-29T04:06:31;101750.45;;;4.56;90.26
62952;BME280;52163;52.212;-1.002;2023-01-29T04:11:38;101754.74;;;4.49;90.45
62952;BME280;52163;52.212;-1.002;2023-01-29T04:14:06;101761.96;;;4.46;90.31
62952;BME280;52163;52.212;-1.002;2023-01-29T04:16:37;101773.05;;;4.43;90.37
62952;BME280;52163;52.212;-1.002;2023-01-29T04:19:04;101773.42;;;4.41;90.40
62952;BME280;52163;52.212;-1.002;2023-01-29T04:21:30;101775.16;;;4.41;90.53
62952;BME280;52163;52.212;-1.002;2023-01-29T04:23:59;101777.63;;;4.41;90.66
62952;BME280;52163;52.212;-1.002;2023-01-29T04:37:24;101761.61;;;4.58;90.54
62952;BME280;52163;52.212;-1.002;2023-01-29T04:42:54;101744.08;;;4.61;90.60
62952;BME280;52163;52.212;-1.002;2023-01-29T04:45:41;101743.40;;;4.60;90.15
62952;BME280;52163;52.212;-1.002;2023-01-29T04:48:20;101743.27;;;4.56;90.12
62952;BME280;52163;52.212;-1.002;2023-01-29T04:51:04;101738.54;;;4.55;90.23
62952;BME280;52163;52.212;-1.002;2023-01-29T04:56:27;101731.54;;;4.56;90.36
62952;BME280;52163;52.212;-1.002;2023-01-29T04:59:00;101731.14;;;4.60;90.76
62952;BME280;52163;52.212;-1.002;2023-01-29T05:01:27;101732.84;;;4.63;90.42
62952;BME280;52163;52.212;-1.002;2023-01-29T05:03:54;101724.30;;;4.61;90.03
62952;BME280;52163;52.212;-1.002;2023-01-29T05:06:21;101732.73;;;4.59;90.20
62952;BME280;52163;52.212;-1.002;2023-01-29T05:08:50;101730.10;;;4.59;90.45
62952;BME280;52163;52.212;-1.002;2023-01-29T05:11:17;101718.38;;;4.59;90.18
62952;BME280;52163;52.212;-1.002;2023-01-29T05:13:44;101715.06;;;4.59;90.11
62952;BME280;52163;52.212;-1.002;2023-01-29T05:16:19;101713.63;;;4.60;90.54
62952;BME280;52163;52.212;-1.002;2023-01-29T05:18:47;101707.59;;;4.66;90.76
62952;BME280;52163;52.212;-1.002;2023-01-29T05:21:12;101699.63;;;4.70;90.38
62952;BME280;52163;52.212;-1.002;2023-01-29T05:23:38;101695.80;;;4.70;90.18
62952;BME280;52163;52.212;-1.002;2023-01-29T05:26:03;101686.69;;;4.71;90.43
62952;BME280;52163;52.212;-1.002;2023-01-29T05:28:29;101673.95;;;4.68;90.19
62952;BME280;52163;52.212;-1.002;2023-01-29T05:30:55;101673.80;;;4.67;90.38
62952;BME280;52163;52.212;-1.002;2023-01-29T05:35:48;101655.39;;;4.57;90.64
62952;BME280;52163;52.212;-1.002;2023-01-29T05:38:16;101657.84;;;4.57;90.93
62952;BME280;52163;52.212;-1.002;2023-01-29T05:40:42;101662.21;;;4.57;91.25
62952;BME280;52163;52.212;-1.002;2023-01-29T05:43:20;101654.34;;;4.58;91.59
62952;BME280;52163;52.212;-1.002;2023-01-29T05:45:57;101648.67;;;4.61;91.97
62952;BME280;52163;52.212;-1.002;2023-01-29T05:48:24;101650.94;;;4.62;91.87
62952;BME280;52163;52.212;-1.002;2023-01-29T05:50:50;101646.02;;;4.63;92.09
62952;BME280;52163;52.212;-1.002;2023-01-29T05:53:15;101645.17;;;4.62;92.17
62952;BME280;52163;52.212;-1.002;2023-01-29T05:55:44;101641.33;;;4.61;92.13
62952;BME280;52163;52.212;-1.002;2023-01-29T05:58:10;101642.25;;;4.59;92.37
62952;BME280;52163;52.212;-1.002;2023-01-29T06:00:36;101648.21;;;4.58;92.52
62952;BME280;52163;52.212;-1.002;2023-01-29T06:03:02;101644.54;;;4.58;92.45
62952;BME280;52163;52.212;-1.002;2023-01-29T06:05:27;101649.42;;;4.59;92.83
62952;BME280;52163;52.212;-1.002;2023-01-29T06:07:53;101644.50;;;4.60;93.07
62952;BME280;52163;52.212;-1.002;2023-01-29T06:10:18;101641.83;;;4.63;93.20
62952;BME280;52163;52.212;-1.002;2023-01-29T06:12:44;101638.52;;;4.62;92.84
62952;BME280;52163;52.212;-1.002;2023-01-29T06:15:11;101633.80;;;4.61;93.07
62952;BME280;52163;52.212;-1.002;2023-01-29T06:17:37;101633.67;;;4.59;93.03
62952;BME280;52163;52.212;-1.002;2023-01-29T06:20:03;101634.38;;;4.59;93.30
62952;BME280;52163;52.212;-1.002;2023-01-29T06:22:29;101631.75;;;4.59;93.52
62952;BME280;52163;52.212;-1.002;2023-01-29T06:24:54;101629.98;;;4.60;93.53
62952;BME280;52163;52.212;-1.002;2023-01-29T06:27:20;101628.56;;;4.61;93.54
62952;BME280;52163;52.212;-1.002;2023-01-29T06:29:45;101628.36;;;4.62;93.59
62952;BME280;52163;52.212;-1.002;2023-01-29T06:32:11;101627.48;;;4.62;93.35
62952;BME280;52163;52.212;-1.002;2023-01-29T06:34:36;101619.96;;;4.62;93.12
62952;BME280;52163;52.212;-1.002;2023-01-29T06:37:02;101618.07;;;4.60;93.02
62952;BME280;52163;52.212;-1.002;2023-01-29T06:39:27;101620.55;;;4.58;92.82
62952;BME280;52163;52.212;-1.002;2023-01-29T06:41:52;101618.64;;;4.57;92.93
62952;BME280;52163;52.212;-1.002;2023-01-29T06:44:18;101610.30;;;4.53;92.71
62952;BME280;52163;52.212;-1.002;2023-01-29T06:46:43;101612.61;;;4.52;92.78
62952;BME280;52163;52.212;-1.002;2023-01-29T06:49:08;101609.20;;;4.47;92.59
62952;BME280;52163;52.212;-1.002;2023-01-29T06:51:34;101607.02;;;4.42;92.57
62952;BME280;52163;52.212;-1.002;2023-01-29T06:54:00;101607.12;;;4.36;92.87
62952;BME280;52163;52.212;-1.002;2023-01-29T06:56:26;101604.77;;;4.29;92.93
62952;BME280;52163;52.212;-1.002;2023-01-29T06:58:51;101601.19;;;4.24;93.22
62952;BME280;52163;52.212;-1.002;2023-01-29T07:01:16;101601.11;;;4.18;93.06
62952;BME280;52163;52.212;-1.002;2023-01-29T07:03:42;101597.49;;;4.14;93.41
62952;BME280;52163;52.212;-1.002;2023-01-29T07:06:08;101595.09;;;4.13;93.62
62952;BME280;52163;52.212;-1.002;2023-01-29T07:08:38;101590.73;;;4.10;93.62
62952;BME280;52163;52.212;-1.002;2023-01-29T07:11:05;101589.92;;;4.06;94.11
62952;BME280;52163;52.212;-1.002;2023-01-29T07:13:30;101596.11;;;4.02;94.04
62952;BME280;52163;52.212;-1.002;2023-01-29T07:16:00;101598.63;;;3.96;94.14
62952;BME280;52163;52.212;-1.002;2023-01-29T07:18:27;101603.77;;;3.94;94.51
62952;BME280;52163;52.212;-1.002;2023-01-29T07:20:52;101603.40;;;3.95;94.68
62952;BME280;52163;52.212;-1.002;2023-01-29T07:23:19;101603.53;;;3.97;94.97
62952;BME280;52163;52.212;-1.002;2023-01-29T07:25:44;101596.12;;;4.01;95.17
62952;BME280;52163;52.212;-1.002;2023-01-29T07:28:10;101598.51;;;4.05;95.27
62952;BME280;52163;52.212;-1.002;2023-01-29T07:30:36;101595.67;;;4.07;95.53
62952;BME280;52163;52.212;-1.002;2023-01-29T07:33:03;101590.06;;;4.08;94.92
62952;BME280;52163;52.212;-1.002;2023-01-29T07:35:29;101593.56;;;4.07;95.23
62952;BME280;52163;52.212;-1.002;2023-01-29T07:37:55;101592.34;;;4.06;95.21
62952;BME280;52163;52.212;-1.002;2023-01-29T07:40:20;101592.34;;;4.08;95.36
62952;BME280;52163;52.212;-1.002;2023-01-29T07:42:46;101585.48;;;4.11;95.82
62952;BME280;52163;52.212;-1.002;2023-01-29T07:45:11;101588.60;;;4.13;95.96
62952;BME280;52163;52.212;-1.002;2023-01-29T07:47:37;101583.67;;;4.14;96.18
62952;BME280;52163;52.212;-1.002;2023-01-29T07:50:03;101585.77;;;4.16;96.42
62952;BME280;52163;52.212;-1.002;2023-01-29T07:52:30;101586.08;;;4.16;96.47
62952;BME280;52163;52.212;-1.002;2023-01-29T07:54:57;101582.77;;;4.16;96.58
62952;BME280;52163;52.212;-1.002;2023-01-29T07:57:22;101575.45;;;4.14;96.49
62952;BME280;52163;52.212;-1.002;2023-01-29T07:59:48;101577.11;;;4.10;95.89
62952;BME280;52163;52.212;-1.002;2023-01-29T08:02:14;101580.48;;;4.06;96.08
62952;BME280;52163;52.212;-1.002;2023-01-29T08:04:39;101584.00;;;4.04;96.38
62952;BME280;52163;52.212;-1.002;2023-01-29T08:07:04;101575.82;;;4.02;96.57
62952;BME280;52163;52.212;-1.002;2023-01-29T08:09:30;101579.67;;;4.01;96.70
62952;BME280;52163;52.212;-1.002;2023-01-29T08:11:56;101576.02;;;4.01;96.73
62952;BME280;52163;52.212;-1.002;2023-01-29T08:14:22;101572.52;;;4.00;96.76
62952;BME280;52163;52.212;-1.002;2023-01-29T08:16:48;101569.72;;;4.01;96.97
62952;BME280;52163;52.212;-1.002;2023-01-29T08:19:14;101569.54;;;4.01;96.87
62952;BME280;52163;52.212;-1.002;2023-01-29T08:21:39;101570.38;;;4.03;97.38
62952;BME280;52163;52.212;-1.002;2023-01-29T08:24:05;101567.55;;;4.06;97.43
62952;BME280;52163;52.212;-1.002;2023-01-29T08:26:31;101566.77;;;4.12;97.87
62952;BME280;52163;52.212;-1.002;2023-01-29T08:28:57;101564.03;;;4.18;98.18
62952;BME280;52163;52.212;-1.002;2023-01-29T08:31:22;101560.61;;;4.24;98.06
62952;BME280;52163;52.212;-1.002;2023-01-29T08:33:48;101560.38;;;4.27;97.79
62952;BME280;52163;52.212;-1.002;2023-01-29T08:36:14;101554.73;;;4.30;98.10
62952;BME280;52163;52.212;-1.002;2023-01-29T08:38:39;101551.86;;;4.35;98.03
62952;BME280;52163;52.212;-1.002;2023-01-29T08:41:05;101551.59;;;4.39;98.13
62952;BME280;52163;52.212;-1.002;2023-01-29T08:43:31;101554.09;;;4.46;98.46
62952;BME280;52163;52.212;-1.002;2023-01-29T08:45:56;101554.83;;;4.53;98.09
62952;BME280;52163;52.212;-1.002;2023-01-29T08:48:22;101558.73;;;4.61;98.31
62952;BME280;52163;52.212;-1.002;2023-01-29T08:50:48;101561.01;;;4.70;98.48
62952;BME280;52163;52.212;-1.002;2023-01-29T08:53:13;101565.36;;;4.80;98.40
62952;BME280;52163;52.212;-1.002;2023-01-29T08:55:39;101565.73;;;4.88;98.08
62952;BME280;52163;52.212;-1.002;2023-01-29T08:58:10;101570.34;;;4.94;97.71
62952;BME280;52163;52.212;-1.002;2023-01-29T09:00:36;101571.45;;;4.99;97.61
62952;BME280;52163;52.212;-1.002;2023-01-29T09:03:03;101572.19;;;5.07;97.89
62952;BME280;52163;52.212;-1.002;2023-01-29T09:05:29;101568.19;;;5.14;97.92
62952;BME280;52163;52.212;-1.002;2023-01-29T09:07:57;101567.69;;;5.21;97.63
62952;BME280;52163;52.212;-1.002;2023-01-29T09:10:23;101571.40;;;5.28;97.62
62952;BME280;52163;52.212;-1.002;2023-01-29T09:12:49;101564.48;;;5.32;97.22
62952;BME280;52163;52.212;-1.002;2023-01-29T09:15:14;101562.13;;;5.36;97.19
62952;BME280;52163;52.212;-1.002;2023-01-29T09:17:39;101561.71;;;5.39;97.11
62952;BME280;52163;52.212;-1.002;2023-01-29T09:20:06;101551.47;;;5.42;97.13
62952;BME280;52163;52.212;-1.002;2023-01-29T09:22:32;101550.66;;;5.48;97.34
62952;BME280;52163;52.212;-1.002;2023-01-29T09:24:58;101554.02;;;5.55;97.19
62952;BME280;52163;52.212;-1.002;2023-01-29T09:27:23;101551.44;;;5.60;97.15
62952;BME280;52163;52.212;-1.002;2023-01-29T09:29:49;101547.46;;;5.64;97.11
62952;BME280;52163;52.212;-1.002;2023-01-29T09:32:14;101543.19;;;5.67;97.26
62952;BME280;52163;52.212;-1.002;2023-01-29T09:34:40;101540.27;;;5.72;97.08
62952;BME280;52163;52.212;-1.002;2023-01-29T09:37:05;101544.42;;;5.75;96.97
62952;BME280;52163;52.212;-1.002;2023-01-29T09:39:31;101540.94;;;5.74;96.92
62952;BME280;52163;52.212;-1.002;2023-01-29T09:42:20;101544.42;;;5.74;96.70
62952;BME280;52163;52.212;-1.002;2023-01-29T09:45:09;101543.52;;;5.76;96.96
62952;BME280;52163;52.212;-1.002;2023-01-29T09:47:36;101539.79;;;5.78;97.27
62952;BME280;52163;52.212;-1.002;2023-01-29T09:55:11;101535.83;;;5.97;97.67
62952;BME280;52163;52.212;-1.002;2023-01-29T09:57:45;101537.59;;;6.05;97.33
62952;BME280;52163;52.212;-1.002;2023-01-29T10:00:22;101541.29;;;6.12;97.00
62952;BME280;52163;52.212;-1.002;2023-01-29T10:25:16;101530.92;;;6.97;96.10
62952;BME280;52163;52.212;-1.002;2023-01-29T10:27:48;101524.73;;;7.11;95.95
62952;BME280;52163;52.212;-1.002;2023-01-29T10:30:32;101522.08;;;7.23;95.93
62952;BME280;52163;52.212;-1.002;2023-01-29T10:33:04;101516.60;;;7.35;95.45
62952;BME280;52163;52.212;-1.002;2023-01-29T10:35:42;101509.75;;;7.47;95.40
62952;BME280;52163;52.212;-1.002;2023-01-29T10:40:58;101496.38;;;7.80;94.99
62952;BME280;52163;52.212;-1.002;2023-01-29T10:58:26;101467.35;;;8.66;91.61
62952;BME280;52163;52.212;-1.002;2023-01-29T11:00:54;101462.97;;;8.71;91.27
62952;BME280;52163;52.212;-1.002;2023-01-29T11:03:23;101461.88;;;8.77;91.03
62952;BME280;52163;52.212;-1.002;2023-01-29T11:08:27;101460.14;;;8.81;90.41
62952;BME280;52163;52.212;-1.002;2023-01-29T11:16:13;101459.50;;;8.64;89.72
62952;BME280;52163;52.212;-1.002;2023-01-29T11:21:16;101452.16;;;8.63;90.13
62952;BME280;52163;52.212;-1.002;2023-01-29T11:23:41;101442.05;;;8.65;89.96
62952;BME280;52163;52.212;-1.002;2023-01-29T11:26:10;101439.08;;;8.69;89.73
62952;BME280;52163;52.212;-1.002;2023-01-29T11:28:40;101431.98;;;8.75;89.97
62952;BME280;52163;52.212;-1.002;2023-01-29T11:31:28;101435.38;;;8.79;89.44
62952;BME280;52163;52.212;-1.002;2023-01-29T11:34:11;101426.71;;;8.75;88.89
62952;BME280;52163;52.212;-1.002;2023-01-29T11:36:38;101423.69;;;8.76;89.28
62952;BME280;52163;52.212;-1.002;2023-01-29T11:41:51;101412.65;;;8.83;88.73
62952;BME280;52163;52.212;-1.002;2023-01-29T11:47:16;101406.10;;;8.89;88.87
62952;BME280;52163;52.212;-1.002;2023-01-29T11:52:13;101395.61;;;9.05;88.53
62952;BME280;52163;52.212;-1.002;2023-01-29T11:57:37;101382.64;;;9.03;87.49
62952;BME280;52163;52.212;-1.002;2023-01-29T12:00:09;101371.27;;;8.96;87.37
62952;BME280;52163;52.212;-1.002;2023-01-29T12:02:44;101364.73;;;8.97;87.15
62952;BME280;52163;52.212;-1.002;2023-01-29T12:05:19;101358.72;;;8.97;87.07
62952;BME280;52163;52.212;-1.002;2023-01-29T12:07:48;101354.16;;;9.01;86.76
62952;BME280;52163;52.212;-1.002;2023-01-29T12:10:40;101350.92;;;8.98;86.27
62952;BME280;52163;52.212;-1.002;2023-01-29T12:15:40;101336.21;;;8.87;85.87
62952;BME280;52163;52.212;-1.002;2023-01-29T12:20:44;101324.11;;;8.85;85.91
62952;BME280;52163;52.212;-1.002;2023-01-29T12:25:40;101312.34;;;8.80;85.80
62952;BME280;52163;52.212;-1.002;2023-01-29T12:31:05;101306.44;;;8.65;85.74
62952;BME280;52163;52.212;-1.002;2023-01-29T12:33:51;101301.92;;;8.59;85.55
62952;BME280;52163;52.212;-1.002;2023-01-29T12:36:24;101301.02;;;8.59;85.63
62952;BME280;52163;52.212;-1.002;2023-01-29T12:38:50;101296.29;;;8.63;85.56
62952;BME280;52163;52.212;-1.002;2023-01-29T12:43:55;101287.46;;;8.81;85.37
62952;BME280;52163;52.212;-1.002;2023-01-29T12:46:32;101282.00;;;8.90;85.44
62952;BME280;52163;52.212;-1.002;2023-01-29T12:49:02;101278.16;;;9.06;85.39
62952;BME280;52163;52.212;-1.002;2023-01-29T12:51:35;101268.66;;;9.27;85.19
62952;BME280;52163;52.212;-1.002;2023-01-29T12:54:06;101262.60;;;9.45;84.62
62952;BME280;52163;52.212;-1.002;2023-01-29T12:56:48;101260.63;;;9.66;83.79
62952;BME280;52163;52.212;-1.002;2023-01-29T13:02:42;101257.05;;;9.95;82.15
62952;BME280;52163;52.212;-1.002;2023-01-29T13:04:56;101261.80;;;10.03;81.38
62952;BME280;52163;52.212;-1.002;2023-01-29T13:07:32;101258.73;;;10.08;80.79
62952;BME280;52163;52.212;-1.002;2023-01-29T13:10:09;101254.72;;;10.11;80.88
62952;BME280;52163;52.212;-1.002;2023-01-29T13:12:38;101255.70;;;10.13;80.84
62952;BME280;52163;52.212;-1.002;2023-01-29T13:15:14;101255.58;;;10.11;80.04
62952;BME280;52163;52.212;-1.002;2023-01-29T13:17:45;101250.84;;;10.11;79.85
62952;BME280;52163;52.212;-1.002;2023-01-29T13:20:18;101250.83;;;10.11;79.57
62952;BME280;52163;52.212;-1.002;2023-01-29T13:22:46;101245.05;;;10.14;79.69
62952;BME280;52163;52.212;-1.002;2023-01-29T13:25:18;101241.80;;;10.15;79.33
62952;BME280;52163;52.212;-1.002;2023-01-29T13:27:45;101242.31;;;10.20;79.44
62952;BME280;52163;52.212;-1.002;2023-01-29T13:30:41;101236.02;;;10.30;79.38
62952;BME280;52163;52.212;-1.002;2023-01-29T13:33:06;101235.56;;;10.43;78.74
62952;BME280;52163;52.212;-1.002;2023-01-29T13:35:40;101232.59;;;10.47;78.53
62952;BME280;52163;52.212;-1.002;2023-01-29T13:38:29;101228.58;;;10.46;78.13
62952;BME280;52163;52.212;-1.002;2023-01-29T13:41:02;101228.15;;;10.43;78.02
62952;BME280;52163;52.212;-1.002;2023-01-29T13:43:34;101217.40;;;10.39;77.99
62952;BME280;52163;52.212;-1.002;2023-01-29T13:46:16;101213.70;;;10.31;77.70
62952;BME280;52163;52.212;-1.002;2023-01-29T13:48:48;101208.30;;;10.26;77.59
62952;BME280;52163;52.212;-1.002;2023-01-29T13:51:20;101200.44;;;10.13;77.15
62952;BME280;52163;52.212;-1.002;2023-01-29T13:53:56;101194.63;;;10.01;77.10
62952;BME280;52163;52.212;-1.002;2023-01-29T13:56:42;101197.79;;;9.94;77.41
62952;BME280;52163;52.212;-1.002;2023-01-29T13:59:22;101190.55;;;9.86;77.55
62952;BME280;52163;52.212;-1.002;2023-01-29T14:06:53;101178.92;;;9.90;77.77
62952;BME280;52163;52.212;-1.002;2023-01-29T14:14:57;101173.77;;;9.86;78.22
62952;BME280;52163;52.212;-1.002;2023-01-29T14:17:24;101177.32;;;9.86;78.18
62952;BME280;52163;52.212;-1.002;2023-01-29T14:20:00;101180.33;;;9.85;78.05
62952;BME280;52163;52.212;-1.002;2023-01-29T14:22:28;101178.02;;;9.86;78.11
62952;BME280;52163;52.212;-1.002;2023-01-29T14:24:59;101177.14;;;9.86;78.19
62952;BME280;52163;52.212;-1.002;2023-01-29T14:27:26;101177.85;;;9.85;77.82
62952;BME280;52163;52.212;-1.002;2023-01-29T14:30:02;101176.08;;;9.82;78.04
62952;BME280;52163;52.212;-1.002;2023-01-29T14:32:30;101170.33;;;9.80;78.39
62952;BME280;52163;52.212;-1.002;2023-01-29T14:35:04;101168.76;;;9.81;78.73
62952;BME280;52163;52.212;-1.002;2023-01-29T14:37:37;101161.53;;;9.80;78.69
62952;BME280;52163;52.212;-1.002;2023-01-29T14:45:30;101153.79;;;9.95;78.68
62952;BME280;52163;52.212;-1.002;2023-01-29T14:47:58;101145.02;;;9.90;78.69
62952;BME280;52163;52.212;-1.002;2023-01-29T14:53:02;101142.25;;;9.78;79.13
62952;BME280;52163;52.212;-1.002;2023-01-29T14:55:36;101141.80;;;9.72;79.19
62952;BME280;52163;52.212;-1.002;2023-01-29T14:58:02;101136.08;;;9.70;79.15
62952;BME280;52163;52.212;-1.002;2023-01-29T15:00:40;101132.59;;;9.69;79.47
62952;BME280;52163;52.212;-1.002;2023-01-29T15:03:28;101127.05;;;9.67;79.27
62952;BME280;52163;52.212;-1.002;2023-01-29T15:05:58;101126.66;;;9.64;79.40
62952;BME280;52163;52.212;-1.002;2023-01-29T15:11:06;101114.31;;;9.56;79.33
62952;BME280;52163;52.212;-1.002;2023-01-29T15:16:50;101110.81;;;9.48;79.51
62952;BME280;52163;52.212;-1.002;2023-01-29T15:19:45;101106.09;;;9.43;79.24
62952;BME280;52163;52.212;-1.002;2023-01-29T15:22:17;101099.05;;;9.39;79.22
62952;BME280;52163;52.212;-1.002;2023-01-29T15:24:44;101101.62;;;9.33;78.26
62952;BME280;52163;52.212;-1.002;2023-01-29T15:27:17;101099.20;;;9.24;77.18
62952;BME280;52163;52.212;-1.002;2023-01-29T15:29:47;101093.27;;;9.15;77.16
62952;BME280;52163;52.212;-1.002;2023-01-29T15:32:31;101096.81;;;9.07;76.59
62952;BME280;52163;52.212;-1.002;2023-01-29T15:34:58;101093.88;;;9.01;76.74
62952;BME280;52163;52.212;-1.002;2023-01-29T15:37:32;101089.94;;;8.94;76.72
62952;BME280;52163;52.212;-1.002;2023-01-29T15:39:59;101084.84;;;8.86;76.86
62952;BME280;52163;52.212;-1.002;2023-01-29T15:42:33;101090.48;;;8.82;76.76
62952;BME280;52163;52.212;-1.002;2023-01-29T15:45:27;101086.11;;;8.77;76.79
62952;BME280;52163;52.212;-1.002;2023-01-29T15:48:02;101082.65;;;8.71;76.89